Aeroporto :
LOGIN :

Iscrizione | Disclaimer

   EN    FR    IT 

 










Sommario :    VFR   VFR Marginale   IFR   IFR Intensivo   IFR Molto Intensivo
Visibilità : 
Base nubi : 
>= 8 km
>= 3000ft
5 / 8 km
1000 / 3000 ft
1500m / 5 km
500 / 1000 ft
800 / 1500m
200 / 500 ft
< 800m
< 200 ft
Simboli :   Temporali  Nebbia  Neve Forte  Precipitazioni Forti  Vento > 20 kt
SIGMETs :   Varie  Temporali  Ghiacco  Turbolenza  Onda orograficha  Ceneri Vulcaniche







- Altitudine del aeroporto : 194 ft


EBCV - Chièvres

ULTIMO METAR :
  • 161255Z AUTO 21010KT //// SCT034/// BKN083/// 20/13 Q1021 BLU

METARs OBSOLETI :
  • 161225Z AUTO 24007KT //// SCT042/// BKN052/// BKN086/// 20/13 Q1021 BLU
  • 161155Z AUTO 23008KT //// SCT035/// BKN064/// BKN077/// 19/12 Q1021 BLU
  • 161125Z AUTO 24005KT //// FEW033/// BKN062/// 19/14 Q1021 BLU
  • 161055Z AUTO 24007KT //// BKN032/// 20/13 Q1021 BLU
  • 161025Z AUTO 25009KT //// BKN025/// BKN045/// 19/13 Q1021 BLU
  • 161022Z AUTO 25007KT //// BKN025/// BKN043/// 19/13 Q1021 BLU

TAF TAF EBCV
Valido dal 16 a 13 ore il 16 a 22 ore UTC


161141Z 1613/1622 24008KT 9999 BKN030
PROB30
TEMPO 1613/1618 9000 -SHRA BKN022
BECMG 1618/1620 SCT030 BY EBWM
Nessun NOTAM noto per questo aeroporto.



MetMap, La meteo Aeronautica in un colpo d'occhio ! - Copyright ORBIFLY Dicembre 2007 - Disclaimer

ORBIFLY MET'MAP TEAM :

Programmazione e sviluppo : Alexandra Zaïnal
Concezione e sviluppo : Baudouin d'Aumeries
Co-Programmazione e sviluppo : Marc-Olivier Méhu
Supporto tecnico e logistico : Manuel Goepfert
Aiuto per la traduzione : Arnaldo La Scala

Contatto : metmap@orbifly.com




FONTI E CREDITI :

   NOAA